Time;durP1;ratioP1;P1;durP2;ratioP2;P2;SDS_P1;SDS_P2;PMS_P1;PMS_P2;Temp;Humidity;BMP_temperature;BMP_pressure;BME280_temperature;BME280_humidity;BME280_pressure;Samples;Min_cycle;Max_cycle;Signal;HPM_P1;HPM_P2
2023/10/31 00:00:16;;;;;;;16.00;11.15;;;18.60;99.90;;;;;;5167186;28;20462;-74
2023/10/31 00:02:47;;;;;;;14.65;10.57;;;18.60;99.90;;;;;;5184898;28;20101;-73
2023/10/31 00:05:18;;;;;;;13.98;9.63;;;18.60;99.90;;;;;;5184780;28;20190;-73
2023/10/31 00:19:14;;;;;;;19.02;13.15;;;18.80;99.90;;;;;;5306954;27;20450;-73
2023/10/31 00:21:45;;;;;;;18.65;13.63;;;18.70;99.90;;;;;;5287706;28;20034;-73
2023/10/31 00:24:16;;;;;;;17.80;12.40;;;18.60;99.90;;;;;;5306420;28;20031;-73
2023/10/31 00:26:47;;;;;;;16.05;12.60;;;18.70;99.90;;;;;;5287267;28;20028;-73
2023/10/31 00:29:18;;;;;;;16.08;11.30;;;18.70;99.90;;;;;;5305639;28;20110;-73
2023/10/31 00:31:49;;;;;;;17.90;12.30;;;18.80;99.90;;;;;;5287169;28;20118;-73
2023/10/31 00:34:20;;;;;;;18.80;12.52;;;18.70;99.90;;;;;;5305479;28;20015;-73
2023/10/31 00:36:51;;;;;;;21.63;12.73;;;18.70;99.90;;;;;;5286965;28;20063;-73
2023/10/31 00:39:22;;;;;;;17.17;12.32;;;18.70;99.90;;;;;;5305313;28;20111;-73
2023/10/31 00:41:53;;;;;;;15.32;13.18;;;18.80;99.90;;;;;;5306486;28;20378;-73
2023/10/31 00:44:24;;;;;;;20.65;12.57;;;18.80;99.90;;;;;;5306376;28;20603;-73
2023/10/31 00:46:55;;;;;;;17.13;10.88;;;18.80;99.90;;;;;;5306406;28;20501;-73
2023/10/31 00:49:25;;;;;;;15.05;11.40;;;18.80;99.90;;;;;;5306282;28;20378;-73
2023/10/31 00:51:56;;;;;;;21.67;12.80;;;18.80;99.90;;;;;;5306238;28;20526;-73
2023/10/31 00:54:27;;;;;;;13.10;11.68;;;18.80;99.90;;;;;;5306164;28;20007;-73
2023/10/31 00:56:58;;;;;;;16.45;11.75;;;18.80;99.90;;;;;;5306139;28;20110;-73
2023/10/31 00:59:29;;;;;;;18.67;11.57;;;18.90;99.90;;;;;;5287889;28;20592;-73
2023/10/31 01:02:00;;;;;;;16.25;12.05;;;18.80;99.90;;;;;;5306258;28;20367;-73
2023/10/31 01:04:31;;;;;;;16.80;11.65;;;18.80;99.90;;;;;;5306144;28;20498;-73
2023/10/31 01:07:02;;;;;;;17.35;11.25;;;18.80;99.90;;;;;;5305930;28;20535;-73
2023/10/31 01:09:32;;;;;;;14.75;11.45;;;18.80;99.90;;;;;;5305718;28;20027;-73
2023/10/31 01:12:04;;;;;;;12.60;10.35;;;18.80;99.90;;;;;;5287452;28;20115;-73
2023/10/31 01:14:35;;;;;;;16.77;11.10;;;18.80;99.90;;;;;;5306147;28;20019;-73
2023/10/31 01:17:06;;;;;;;17.65;12.20;;;18.80;99.90;;;;;;5305540;28;20708;-73
2023/10/31 01:19:36;;;;;;;17.13;12.65;;;18.80;99.90;;;;;;5294486;28;20027;-73
2023/10/31 01:22:07;;;;;;;20.15;12.63;;;18.80;99.90;;;;;;5290570;28;20024;-73
2023/10/31 01:24:38;;;;;;;15.18;12.10;;;18.70;99.90;;;;;;5290395;28;20024;-73
2023/10/31 01:27:09;;;;;;;18.85;12.43;;;18.80;99.90;;;;;;5290043;28;20040;-74
2023/10/31 01:29:40;;;;;;;13.80;12.02;;;18.90;99.90;;;;;;5290209;28;20474;-73
2023/10/31 01:32:11;;;;;;;16.38;10.93;;;18.90;99.90;;;;;;5290142;28;20031;-74
2023/10/31 01:34:42;;;;;;;19.55;12.45;;;18.80;99.90;;;;;;5271845;28;20024;-73
2023/10/31 01:37:14;;;;;;;18.95;11.88;;;18.80;99.90;;;;;;5290458;28;20382;-73
2023/10/31 01:39:45;;;;;;;16.63;11.60;;;18.70;99.90;;;;;;5272751;28;20513;-73
2023/10/31 01:42:17;;;;;;;17.70;11.88;;;18.70;99.90;;;;;;5272782;28;20100;-73
2023/10/31 01:44:48;;;;;;;14.77;11.25;;;18.80;99.90;;;;;;5272987;28;20032;-72
2023/10/31 01:47:19;;;;;;;18.08;12.23;;;18.70;99.90;;;;;;5291032;28;20040;-73
2023/10/31 01:49:51;;;;;;;15.93;12.15;;;18.80;99.90;;;;;;5290835;28;20035;-73
2023/10/31 01:52:22;;;;;;;14.38;11.73;;;18.70;99.90;;;;;;5272551;28;20023;-73
2023/10/31 01:54:54;;;;;;;14.88;11.80;;;18.80;99.90;;;;;;5290819;28;20020;-73
2023/10/31 01:57:25;;;;;;;14.43;12.02;;;18.70;99.90;;;;;;5290789;28;20019;-73
2023/10/31 01:59:56;;;;;;;15.35;12.02;;;18.80;99.90;;;;;;5291086;28;20373;-73
2023/10/31 02:02:28;;;;;;;18.75;12.15;;;18.70;99.90;;;;;;5272493;28;20103;-73
2023/10/31 02:05:00;;;;;;;18.33;12.00;;;18.80;99.90;;;;;;5290665;28;20019;-73
2023/10/31 02:07:31;;;;;;;18.08;12.32;;;18.80;99.90;;;;;;5290484;28;20038;-73
2023/10/31 02:10:02;;;;;;;14.82;11.18;;;18.90;99.90;;;;;;5290588;28;20370;-73
2023/10/31 02:12:37;;;;;;;15.23;11.05;;;18.80;99.90;;;;;;5290464;28;20039;-73
2023/10/31 02:15:08;;;;;;;16.27;11.93;;;18.80;99.90;;;;;;5289709;28;20081;-73
2023/10/31 02:17:39;;;;;;;18.70;11.43;;;18.80;99.90;;;;;;5289312;28;20052;-73
2023/10/31 02:20:11;;;;;;;20.13;12.60;;;18.80;99.90;;;;;;5289167;28;20022;-73
2023/10/31 02:22:41;;;;;;;13.43;11.60;;;18.80;99.90;;;;;;5289272;28;20031;-73
2023/10/31 02:25:19;;;;;;;18.20;12.50;;;18.70;99.90;;;;;;5289427;28;20016;-73
2023/10/31 02:27:49;;;;;;;20.10;12.68;;;18.80;99.90;;;;;;5288893;28;20067;-73
2023/10/31 02:30:20;;;;;;;16.83;12.45;;;18.70;99.90;;;;;;5287858;28;20062;-73
2023/10/31 02:32:51;;;;;;;14.52;11.82;;;18.80;99.90;;;;;;5289592;28;20019;-73
2023/10/31 02:35:22;;;;;;;15.60;12.25;;;18.80;99.90;;;;;;5289845;28;20027;-73
2023/10/31 02:37:53;;;;;;;17.63;12.50;;;18.90;99.90;;;;;;5289767;28;20023;-73
2023/10/31 02:40:24;;;;;;;20.02;13.05;;;18.70;99.90;;;;;;5289798;28;20024;-73
2023/10/31 02:42:55;;;;;;;18.52;14.45;;;18.70;99.90;;;;;;5289858;28;20027;-73
2023/10/31 02:45:26;;;;;;;20.73;13.43;;;18.70;99.90;;;;;;5289929;28;20015;-73
2023/10/31 02:47:57;;;;;;;17.05;13.80;;;18.70;99.90;;;;;;5289504;28;20051;-73
2023/10/31 02:50:28;;;;;;;16.52;13.73;;;18.70;99.90;;;;;;5289696;28;20409;-73
2023/10/31 02:52:58;;;;;;;17.10;14.73;;;18.70;99.90;;;;;;5289667;28;20031;-73
2023/10/31 02:55:29;;;;;;;17.75;14.65;;;18.70;99.90;;;;;;5289651;28;20073;-73
2023/10/31 02:58:00;;;;;;;17.95;14.20;;;18.70;99.90;;;;;;5289508;28;20038;-73
2023/10/31 03:00:31;;;;;;;20.77;16.42;;;18.80;99.90;;;;;;5289522;28;20104;-73
2023/10/31 03:03:02;;;;;;;18.92;14.93;;;18.70;99.90;;;;;;5289442;28;20028;-73
2023/10/31 03:05:34;;;;;;;17.10;14.57;;;18.80;99.90;;;;;;5289397;28;20022;-73
2023/10/31 03:08:07;;;;;;;15.18;13.38;;;18.80;99.90;;;;;;5289262;28;20121;-73
2023/10/31 03:10:42;;;;;;;17.65;15.10;;;18.70;99.90;;;;;;5288770;28;20689;-73
2023/10/31 03:13:12;;;;;;;17.75;14.05;;;18.80;99.90;;;;;;5288750;28;20047;-73
2023/10/31 03:15:44;;;;;;;16.00;14.35;;;18.70;99.90;;;;;;5288038;28;20067;-73
2023/10/31 03:18:15;;;;;;;17.00;14.70;;;18.80;99.90;;;;;;5287852;28;20070;-73
2023/10/31 03:20:46;;;;;;;17.38;14.57;;;18.80;99.90;;;;;;5287879;28;20103;-73
2023/10/31 03:23:17;;;;;;;17.65;14.73;;;18.80;99.90;;;;;;5287913;28;20160;-73
2023/10/31 03:25:48;;;;;;;15.95;14.32;;;18.80;99.90;;;;;;5287995;28;20031;-73
2023/10/31 03:28:22;;;;;;;16.98;13.82;;;18.80;99.90;;;;;;5288203;28;20433;-73
2023/10/31 03:30:53;;;;;;;19.88;14.65;;;18.70;99.90;;;;;;5289204;28;20028;-73
2023/10/31 03:33:24;;;;;;;17.30;14.02;;;18.80;99.90;;;;;;5289465;28;20106;-73
2023/10/31 03:35:55;;;;;;;16.30;14.68;;;18.70;99.90;;;;;;5289024;28;20573;-73
2023/10/31 03:38:26;;;;;;;17.27;15.35;;;18.70;99.90;;;;;;5288886;28;20053;-73
2023/10/31 03:40:57;;;;;;;17.13;14.73;;;18.80;99.90;;;;;;5288905;28;20469;-73
2023/10/31 03:43:28;;;;;;;17.13;15.32;;;18.80;99.90;;;;;;5288773;28;20572;-73
2023/10/31 03:45:59;;;;;;;15.77;14.15;;;18.70;99.90;;;;;;5288686;28;20031;-73
2023/10/31 03:48:29;;;;;;;17.67;14.75;;;18.70;99.90;;;;;;5288472;28;20054;-73
2023/10/31 03:51:01;;;;;;;19.23;14.50;;;18.70;99.90;;;;;;5288667;28;20378;-73
2023/10/31 03:53:32;;;;;;;16.88;14.38;;;18.70;99.90;;;;;;5288851;28;20023;-73
2023/10/31 03:56:03;;;;;;;16.85;14.98;;;18.60;99.90;;;;;;5288603;28;20028;-73
2023/10/31 03:58:34;;;;;;;16.20;14.68;;;18.70;99.90;;;;;;5288471;28;20027;-73
2023/10/31 04:01:05;;;;;;;17.15;15.02;;;18.70;99.90;;;;;;5288550;28;20466;-73
2023/10/31 04:03:35;;;;;;;14.75;13.23;;;18.70;99.90;;;;;;5288410;28;20486;-73
2023/10/31 04:06:06;;;;;;;17.83;14.30;;;18.70;99.90;;;;;;5287806;28;20030;-73
2023/10/31 04:08:37;;;;;;;16.48;14.95;;;18.70;99.90;;;;;;5287934;28;20032;-73
2023/10/31 04:11:08;;;;;;;17.30;13.65;;;18.80;99.90;;;;;;5287192;28;20035;-73
2023/10/31 04:13:39;;;;;;;19.15;15.05;;;18.80;99.90;;;;;;5287018;28;20471;-73
2023/10/31 04:16:10;;;;;;;15.90;12.98;;;18.80;99.90;;;;;;5287077;28;20348;-73
2023/10/31 04:18:41;;;;;;;16.10;13.48;;;18.80;99.90;;;;;;5287247;28;20039;-73
2023/10/31 04:21:12;;;;;;;20.27;12.75;;;18.70;99.90;;;;;;5287664;28;20042;-73
2023/10/31 04:23:42;;;;;;;13.90;12.48;;;18.80;99.90;;;;;;5287387;28;20024;-73
2023/10/31 04:26:14;;;;;;;16.17;12.93;;;18.80;99.90;;;;;;5288232;28;20036;-73
2023/10/31 04:28:45;;;;;;;16.83;13.85;;;18.80;99.90;;;;;;5288560;28;20039;-73
2023/10/31 04:31:15;;;;;;;17.00;13.40;;;18.90;99.90;;;;;;5288692;28;20027;-73
2023/10/31 04:33:46;;;;;;;16.70;13.77;;;18.80;99.90;;;;;;5288422;28;20157;-73
2023/10/31 04:36:17;;;;;;;17.60;14.20;;;18.80;99.90;;;;;;5288564;28;20024;-72
2023/10/31 04:38:48;;;;;;;21.25;14.13;;;18.70;99.90;;;;;;5288345;28;20030;-73
2023/10/31 04:41:19;;;;;;;14.20;12.73;;;18.80;99.90;;;;;;5288682;28;20056;-73
2023/10/31 04:43:50;;;;;;;14.13;12.65;;;18.80;99.90;;;;;;5288982;28;20023;-72
2023/10/31 04:46:21;;;;;;;14.80;12.73;;;18.90;99.90;;;;;;5288176;28;20031;-73
2023/10/31 04:48:52;;;;;;;14.30;12.80;;;18.80;99.90;;;;;;5288446;28;20031;-73
2023/10/31 04:51:23;;;;;;;16.73;13.52;;;18.80;99.90;;;;;;5288415;28;20737;-72
2023/10/31 04:53:54;;;;;;;18.42;13.55;;;18.70;99.90;;;;;;5289402;28;20042;-73
2023/10/31 04:56:24;;;;;;;14.18;12.82;;;18.80;99.90;;;;;;5292341;28;20011;-73
2023/10/31 04:58:55;;;;;;;16.65;14.40;;;18.80;99.90;;;;;;5292338;28;20024;-73
2023/10/31 05:01:26;;;;;;;20.38;16.63;;;18.80;99.90;;;;;;5292013;28;20028;-73
2023/10/31 05:03:57;;;;;;;17.35;15.48;;;18.80;99.90;;;;;;5291399;28;20042;-73
2023/10/31 05:06:28;;;;;;;18.83;15.52;;;18.80;99.90;;;;;;5290978;28;20493;-73
2023/10/31 05:08:59;;;;;;;17.75;16.25;;;18.80;99.90;;;;;;5705188;22;20084;-74
2023/10/31 05:11:30;;;;;;;17.02;15.23;;;18.80;99.90;;;;;;5248569;28;20028;-72
2023/10/31 05:14:00;;;;;;;16.83;15.20;;;18.80;99.90;;;;;;5248575;28;20033;-73
2023/10/31 05:16:31;;;;;;;18.95;16.70;;;18.80;99.90;;;;;;5249024;28;20154;-74
2023/10/31 05:19:04;;;;;;;17.27;15.48;;;18.80;99.90;;;;;;5248998;28;20021;-72
2023/10/31 05:21:35;;;;;;;18.33;15.07;;;18.90;99.90;;;;;;5249469;28;20021;-71
2023/10/31 05:24:07;;;;;;;17.05;15.48;;;18.80;99.90;;;;;;5249673;28;20103;-73
2023/10/31 05:26:41;;;;;;;17.10;15.35;;;18.80;99.90;;;;;;5249422;28;20032;-72
2023/10/31 05:29:12;;;;;;;19.42;16.40;;;18.80;99.90;;;;;;5249400;28;20032;-73
2023/10/31 05:31:44;;;;;;;22.98;15.48;;;18.90;99.90;;;;;;5249316;28;20446;-72
2023/10/31 05:34:15;;;;;;;18.17;14.80;;;18.90;99.90;;;;;;5249372;28;20028;-73
2023/10/31 05:36:45;;;;;;;17.58;15.77;;;18.90;99.90;;;;;;5249624;28;20035;-73
2023/10/31 05:39:16;;;;;;;18.20;16.50;;;18.90;99.90;;;;;;5231182;28;20036;-74
2023/10/31 05:41:47;;;;;;;18.02;16.27;;;19.00;99.90;;;;;;5249278;28;20035;-73
2023/10/31 05:44:18;;;;;;;18.48;16.67;;;18.90;99.90;;;;;;5248445;28;20487;-74
2023/10/31 05:46:49;;;;;;;18.67;16.88;;;19.00;99.90;;;;;;5249312;28;20348;-73
2023/10/31 05:49:20;;;;;;;18.58;16.45;;;19.00;99.90;;;;;;5247937;28;20033;-74
2023/10/31 05:51:52;;;;;;;17.13;15.43;;;19.00;99.90;;;;;;5248197;28;20420;-74
2023/10/31 05:54:23;;;;;;;17.50;15.90;;;19.10;99.90;;;;;;5248110;28;20029;-74
2023/10/31 05:56:54;;;;;;;16.90;14.35;;;19.00;99.90;;;;;;5249118;28;20041;-74
2023/10/31 05:59:25;;;;;;;17.55;14.93;;;19.10;99.90;;;;;;5248783;28;20039;-74
2023/10/31 06:01:56;;;;;;;18.30;14.10;;;19.10;99.90;;;;;;5247933;28;20037;-73
2023/10/31 06:04:27;;;;;;;17.77;15.95;;;19.20;99.90;;;;;;5247613;28;20017;-74
2023/10/31 06:06:58;;;;;;;17.00;15.30;;;19.10;99.90;;;;;;5247483;28;20675;-74
2023/10/31 06:09:29;;;;;;;16.05;14.35;;;19.10;99.90;;;;;;5705683;22;20104;-74
2023/10/31 06:12:01;;;;;;;19.27;14.88;;;19.20;99.90;;;;;;5206140;28;20432;-74
2023/10/31 06:14:32;;;;;;;16.33;14.57;;;19.20;99.90;;;;;;5206463;28;20025;-74
2023/10/31 06:17:03;;;;;;;19.60;15.02;;;19.30;99.90;;;;;;5206496;28;20101;-74
2023/10/31 06:19:38;;;;;;;25.38;22.20;;;19.30;99.90;;;;;;5207260;28;20048;-74
2023/10/31 06:22:09;;;;;;;27.27;21.75;;;19.30;99.90;;;;;;5189357;28;20021;-74
2023/10/31 06:24:40;;;;;;;28.20;21.98;;;19.30;99.90;;;;;;5207085;28;20033;-74
2023/10/31 06:27:11;;;;;;;25.73;20.70;;;19.30;99.90;;;;;;5207160;28;20045;-74
2023/10/31 06:29:42;;;;;;;32.50;22.98;;;19.40;99.90;;;;;;5207006;28;20025;-73
2023/10/31 06:32:13;;;;;;;31.17;22.58;;;19.40;99.90;;;;;;5207020;28;20033;-74
2023/10/31 06:34:44;;;;;;;29.13;20.85;;;19.40;99.90;;;;;;5206531;28;20036;-74
2023/10/31 06:37:14;;;;;;;25.27;20.90;;;19.40;99.90;;;;;;5206721;28;20068;-74
2023/10/31 06:39:45;;;;;;;29.23;20.88;;;19.50;99.90;;;;;;5206412;28;20079;-73
2023/10/31 06:42:16;;;;;;;26.60;18.08;;;19.40;99.90;;;;;;5206854;28;20072;-74
2023/10/31 06:44:47;;;;;;;20.42;17.20;;;19.50;99.90;;;;;;5206931;28;20030;-73
2023/10/31 06:47:18;;;;;;;19.60;16.02;;;19.50;99.90;;;;;;5206566;28;20065;-73
2023/10/31 06:49:48;;;;;;;20.55;16.45;;;19.60;99.90;;;;;;5205735;28;20037;-74
2023/10/31 06:52:19;;;;;;;23.80;15.50;;;19.70;99.90;;;;;;5206009;28;20022;-74
2023/10/31 06:54:50;;;;;;;17.60;15.18;;;19.70;99.90;;;;;;5205725;28;20025;-74
2023/10/31 06:57:21;;;;;;;23.88;16.83;;;19.70;99.90;;;;;;5206167;28;20384;-74
2023/10/31 06:59:52;;;;;;;24.92;16.65;;;19.70;99.90;;;;;;5205569;28;20036;-74
2023/10/31 07:02:23;;;;;;;20.70;15.35;;;19.80;99.90;;;;;;5205346;28;20112;-74
2023/10/31 07:04:54;;;;;;;22.67;16.40;;;19.80;99.90;;;;;;5205324;28;20446;-74
2023/10/31 07:07:25;;;;;;;20.67;16.90;;;19.90;99.90;;;;;;5205193;28;20105;-74
2023/10/31 07:09:55;;;;;;;24.95;18.70;;;19.90;99.90;;;;;;5204631;28;20111;-74
2023/10/31 07:12:28;;;;;;;22.25;18.70;;;19.90;99.90;;;;;;5205212;28;20018;-74
2023/10/31 07:14:59;;;;;;;23.33;19.60;;;20.00;99.90;;;;;;5206749;28;20374;-73
2023/10/31 07:17:30;;;;;;;21.33;18.45;;;20.00;99.90;;;;;;5205789;28;20022;-74
2023/10/31 07:20:01;;;;;;;21.27;19.02;;;20.00;99.90;;;;;;5206196;28;20025;-73
2023/10/31 07:22:34;;;;;;;21.40;18.23;;;20.00;99.90;;;;;;5205874;28;20497;-73
2023/10/31 07:25:05;;;;;;;22.40;18.98;;;20.00;99.90;;;;;;5206173;28;20021;-74
2023/10/31 07:27:36;;;;;;;22.77;18.42;;;20.00;99.90;;;;;;5206058;28;20069;-73
2023/10/31 07:30:07;;;;;;;21.08;18.80;;;20.00;99.90;;;;;;5205870;28;20029;-73
2023/10/31 07:32:38;;;;;;;24.75;18.50;;;20.00;99.90;;;;;;5206084;28;20033;-73
2023/10/31 07:35:09;;;;;;;22.70;19.80;;;20.00;99.90;;;;;;5205834;28;20032;-73
2023/10/31 07:37:40;;;;;;;32.47;23.40;;;20.00;99.90;;;;;;5205828;28;20365;-73
2023/10/31 07:40:12;;;;;;;28.02;25.02;;;20.00;99.90;;;;;;5205678;28;20041;-73
2023/10/31 07:42:42;;;;;;;25.73;22.60;;;20.10;99.90;;;;;;5205761;28;20053;-73
2023/10/31 07:45:13;;;;;;;25.17;22.40;;;20.10;99.90;;;;;;5205939;28;20087;-73
2023/10/31 07:47:44;;;;;;;21.98;19.63;;;20.10;99.90;;;;;;5205469;28;20033;-73
2023/10/31 07:50:15;;;;;;;24.50;18.75;;;20.10;99.90;;;;;;5205206;28;20037;-73
2023/10/31 07:52:47;;;;;;;31.00;20.40;;;20.00;99.90;;;;;;5205130;28;20033;-73
2023/10/31 07:55:18;;;;;;;33.08;22.13;;;20.00;99.90;;;;;;5204519;28;20028;-73
2023/10/31 07:57:49;;;;;;;29.60;21.27;;;20.10;99.90;;;;;;5204764;28;20021;-73
2023/10/31 08:00:21;;;;;;;27.85;19.92;;;20.00;99.90;;;;;;5204401;28;20049;-73
2023/10/31 08:02:52;;;;;;;25.08;21.80;;;20.10;99.90;;;;;;5204391;28;20029;-73
2023/10/31 08:05:23;;;;;;;25.48;20.67;;;20.20;99.90;;;;;;5204089;28;20030;-73
2023/10/31 08:07:54;;;;;;;28.92;23.80;;;20.10;99.90;;;;;;5204009;28;20046;-73
2023/10/31 08:10:25;;;;;;;32.22;24.25;;;20.10;99.90;;;;;;5204756;28;20488;-73
2023/10/31 08:12:56;;;;;;;29.63;21.65;;;20.10;99.90;;;;;;5205237;28;20113;-73
2023/10/31 08:15:26;;;;;;;27.13;23.02;;;20.00;99.90;;;;;;5204972;28;20068;-73
2023/10/31 08:17:57;;;;;;;27.92;23.10;;;20.10;99.90;;;;;;5205108;28;20029;-73
2023/10/31 08:20:33;;;;;;;31.90;23.40;;;20.20;99.90;;;;;;5205395;28;20041;-73
2023/10/31 08:23:03;;;;;;;31.70;25.88;;;20.10;99.90;;;;;;5205602;28;20030;-73
2023/10/31 08:25:34;;;;;;;29.60;23.58;;;20.20;99.90;;;;;;5205292;28;20079;-73
2023/10/31 08:28:05;;;;;;;32.90;25.52;;;20.20;99.90;;;;;;5205533;28;20029;-73
2023/10/31 08:30:38;;;;;;;37.15;24.73;;;20.20;99.90;;;;;;5208733;28;20057;-73
2023/10/31 08:33:08;;;;;;;32.15;25.35;;;20.10;99.90;;;;;;5209112;28;20124;-73
2023/10/31 08:35:40;;;;;;;34.15;28.92;;;20.10;99.90;;;;;;5209008;28;20105;-74
2023/10/31 08:38:11;;;;;;;32.58;28.25;;;20.20;99.90;;;;;;5208940;28;20072;-73
2023/10/31 08:40:42;;;;;;;37.55;28.73;;;20.30;99.90;;;;;;5209085;28;20469;-73
2023/10/31 08:43:13;;;;;;;31.52;27.83;;;20.30;99.90;;;;;;5208651;28;20029;-73
2023/10/31 08:45:44;;;;;;;31.67;28.10;;;20.30;99.90;;;;;;5209107;28;20025;-73
2023/10/31 08:48:15;;;;;;;33.28;29.65;;;20.30;99.90;;;;;;5207895;28;20091;-72
2023/10/31 08:50:46;;;;;;;33.30;29.23;;;20.40;99.90;;;;;;5208208;28;20521;-73
2023/10/31 08:53:19;;;;;;;39.05;31.10;;;20.40;99.90;;;;;;5207680;28;20060;-73
2023/10/31 08:55:49;;;;;;;40.40;29.10;;;20.50;99.90;;;;;;5207878;28;20031;-73
2023/10/31 08:58:20;;;;;;;40.55;32.65;;;20.50;99.90;;;;;;5207760;28;20033;-73
2023/10/31 09:00:51;;;;;;;38.15;31.60;;;20.60;99.90;;;;;;5207710;28;20025;-73
2023/10/31 09:03:22;;;;;;;39.30;31.60;;;20.60;99.90;;;;;;5207596;28;20056;-73
2023/10/31 09:05:53;;;;;;;39.33;34.20;;;20.40;99.90;;;;;;5207862;28;20029;-73
2023/10/31 09:08:24;;;;;;;40.35;34.88;;;20.50;99.90;;;;;;5208149;28;20128;-73
2023/10/31 09:10:54;;;;;;;42.28;35.10;;;20.50;99.90;;;;;;5208835;28;20595;-74
2023/10/31 09:13:25;;;;;;;39.83;35.55;;;20.50;99.90;;;;;;5208340;28;20029;-73
2023/10/31 09:16:00;;;;;;;39.85;35.55;;;20.60;99.90;;;;;;5208491;28;20025;-73
2023/10/31 09:18:31;;;;;;;39.17;32.97;;;20.60;99.90;;;;;;5208625;28;20064;-73
2023/10/31 09:21:02;;;;;;;40.38;34.13;;;20.60;99.90;;;;;;5208408;28;20118;-73
2023/10/31 09:23:33;;;;;;;46.35;35.20;;;20.70;99.90;;;;;;5208246;28;20040;-73
2023/10/31 09:26:04;;;;;;;40.58;34.20;;;20.70;99.90;;;;;;5208268;28;20025;-73
2023/10/31 09:28:39;;;;;;;41.35;35.25;;;20.70;99.90;;;;;;5208391;28;20120;-73
2023/10/31 09:31:09;;;;;;;37.58;33.65;;;20.70;99.90;;;;;;5208493;28;20033;-73
2023/10/31 09:33:40;;;;;;;41.75;36.28;;;20.70;99.90;;;;;;5208218;28;20038;-73
2023/10/31 09:36:12;;;;;;;41.72;35.00;;;20.80;99.90;;;;;;5208358;28;20079;-73
2023/10/31 09:38:43;;;;;;;39.65;34.58;;;20.80;99.90;;;;;;5208093;28;20073;-73
2023/10/31 09:41:14;;;;;;;35.50;31.52;;;20.90;99.90;;;;;;5207899;28;20110;-73
2023/10/31 09:43:45;;;;;;;43.20;35.08;;;20.90;99.90;;;;;;5208281;28;20086;-73
2023/10/31 09:46:17;;;;;;;38.47;34.35;;;20.80;99.90;;;;;;5207907;28;20471;-73
2023/10/31 09:48:49;;;;;;;41.03;36.47;;;20.80;99.90;;;;;;5206659;28;20029;-74
2023/10/31 09:51:21;;;;;;;39.90;35.72;;;20.90;99.90;;;;;;5206765;28;20028;-73
2023/10/31 09:53:55;;;;;;;49.60;36.50;;;21.00;99.90;;;;;;5206693;28;20025;-73
2023/10/31 09:56:30;;;;;;;42.33;36.35;;;21.00;99.90;;;;;;5206923;28;20025;-73
2023/10/31 09:59:05;;;;;;;45.78;36.70;;;20.90;99.90;;;;;;5206758;28;20037;-73
2023/10/31 10:01:36;;;;;;;42.47;37.40;;;21.00;99.90;;;;;;5206719;28;20065;-73
2023/10/31 10:04:07;;;;;;;44.80;36.28;;;20.90;99.90;;;;;;5207562;28;20049;-74
2023/10/31 10:07:03;;;;;;;45.63;36.80;;;21.00;99.90;;;;;;5207503;28;20041;-73
2023/10/31 10:09:34;;;;;;;42.63;37.35;;;21.00;99.90;;;;;;5207229;28;20410;-73
2023/10/31 10:12:05;;;;;;;46.53;37.90;;;21.00;99.90;;;;;;5207598;28;20040;-73
2023/10/31 10:14:36;;;;;;;52.05;40.53;;;21.00;99.90;;;;;;5207493;28;20030;-73
2023/10/31 10:17:22;;;;;;;46.10;40.47;;;21.10;99.90;;;;;;5207665;28;20033;-72
2023/10/31 10:20:07;;;;;;;46.45;39.20;;;21.20;99.90;;;;;;5207194;28;20033;-73
2023/10/31 10:22:42;;;;;;;46.17;40.15;;;21.30;99.90;;;;;;5207310;28;20037;-73
2023/10/31 10:25:16;;;;;;;51.22;43.17;;;21.40;99.90;;;;;;5207253;28;20039;-73
2023/10/31 10:27:48;;;;;;;50.50;44.45;;;21.40;99.90;;;;;;5189646;28;20030;-73
2023/10/31 10:30:18;;;;;;;48.10;43.08;;;21.50;99.90;;;;;;5207031;28;20059;-73
2023/10/31 10:32:51;;;;;;;49.00;41.42;;;21.60;99.90;;;;;;5226957;28;20172;-73
2023/10/31 10:35:22;;;;;;;51.17;39.33;;;21.60;99.90;;;;;;5208413;28;20056;-73
2023/10/31 10:37:56;;;;;;;48.38;40.75;;;21.70;99.90;;;;;;5227260;28;20049;-74
2023/10/31 10:40:27;;;;;;;46.40;39.15;;;21.60;99.90;;;;;;5226681;28;20033;-74
2023/10/31 10:43:02;;;;;;;44.85;37.58;;;21.70;99.90;;;;;;5227277;28;20029;-73
2023/10/31 10:45:35;;;;;;;45.90;38.92;;;21.60;99.90;;;;;;5226532;28;20033;-73
2023/10/31 10:48:10;;;;;;;45.85;37.58;;;21.60;99.90;;;;;;5226092;28;20048;-74
2023/10/31 10:50:59;;;;;;;43.33;37.50;;;21.70;99.90;;;;;;5216157;28;20026;-73
2023/10/31 10:53:44;;;;;;;50.08;37.50;;;21.70;99.90;;;;;;5205224;28;20040;-73
2023/10/31 10:56:26;;;;;;;41.88;37.35;;;21.70;99.90;;;;;;5205810;28;20033;-73
2023/10/31 10:59:18;;;;;;;45.05;37.38;;;21.70;99.90;;;;;;5206375;28;20414;-74
2023/10/31 11:01:49;;;;;;;40.50;36.25;;;21.70;99.90;;;;;;5206436;28;20087;-73
2023/10/31 11:04:21;;;;;;;49.50;40.17;;;21.90;99.90;;;;;;5206568;28;20025;-73
2023/10/31 11:06:52;;;;;;;46.45;39.20;;;21.80;99.90;;;;;;5206156;28;20029;-73
2023/10/31 11:09:24;;;;;;;43.60;38.50;;;22.00;99.90;;;;;;5205749;28;20085;-73
2023/10/31 11:11:55;;;;;;;43.63;37.80;;;22.10;99.90;;;;;;5206617;28;20037;-73
2023/10/31 11:14:27;;;;;;;55.95;37.95;;;22.10;99.90;;;;;;5206302;28;20037;-73
2023/10/31 11:17:05;;;;;;;46.47;36.70;;;22.30;99.90;;;;;;5206301;28;20026;-73
2023/10/31 11:19:37;;;;;;;45.13;38.72;;;22.40;99.90;;;;;;5206222;28;20022;-73
2023/10/31 11:22:10;;;;;;;51.28;41.03;;;22.40;99.90;;;;;;5206174;28;20068;-73
2023/10/31 11:24:42;;;;;;;42.63;38.03;;;22.50;99.90;;;;;;5206050;28;20103;-73
2023/10/31 11:27:13;;;;;;;42.97;37.72;;;22.50;99.90;;;;;;5206095;28;20025;-73
2023/10/31 11:29:44;;;;;;;43.20;37.35;;;22.80;99.90;;;;;;5205937;28;20051;-74
2023/10/31 11:32:15;;;;;;;46.03;35.78;;;23.10;99.90;;;;;;5206050;28;20388;-73
2023/10/31 11:34:46;;;;;;;45.00;36.97;;;23.30;99.90;;;;;;5205870;28;20112;-73
2023/10/31 11:37:31;;;;;;;40.80;34.63;;;23.40;99.90;;;;;;5205065;28;20034;-73
2023/10/31 11:40:15;;;;;;;45.70;33.75;;;23.50;99.90;;;;;;5204851;28;20029;-73
2023/10/31 11:42:56;;;;;;;41.53;33.08;;;23.70;99.90;;;;;;5204544;28;20025;-73
2023/10/31 11:45:29;;;;;;;39.22;30.83;;;23.60;99.90;;;;;;5204717;28;20338;-74
2023/10/31 11:48:00;;;;;;;42.38;32.22;;;23.80;99.90;;;;;;5204767;28;20044;-73
2023/10/31 11:50:32;;;;;;;37.90;30.25;;;23.90;99.90;;;;;;5204638;28;20025;-73
2023/10/31 11:53:07;;;;;;;36.22;30.55;;;24.00;99.90;;;;;;5204490;28;20032;-73
2023/10/31 11:55:47;;;;;;;42.65;33.95;;;23.90;99.90;;;;;;5205274;28;20060;-73
2023/10/31 11:58:23;;;;;;;36.33;30.50;;;24.10;99.90;;;;;;5205768;28;20037;-73
2023/10/31 12:01:03;;;;;;;41.22;30.13;;;24.10;99.90;;;;;;5205826;28;20053;-73
2023/10/31 12:03:52;;;;;;;37.50;31.60;;;24.30;99.90;;;;;;5205420;28;20385;-73
2023/10/31 12:06:23;;;;;;;43.25;34.33;;;24.60;99.90;;;;;;5205379;28;20063;-73
2023/10/31 12:08:59;;;;;;;35.10;31.30;;;24.60;99.90;;;;;;5203905;28;20081;-73
2023/10/31 12:11:30;;;;;;;34.42;30.05;;;24.40;99.90;;;;;;5205907;28;20052;-73
2023/10/31 12:14:04;;;;;;;44.58;31.20;;;24.30;99.90;;;;;;5205937;28;20029;-72
2023/10/31 12:16:35;;;;;;;38.35;28.80;;;24.20;99.90;;;;;;5205583;28;20025;-73
2023/10/31 12:19:06;;;;;;;40.63;29.60;;;24.40;99.90;;;;;;5205513;28;20075;-72
2023/10/31 12:21:49;;;;;;;38.00;29.15;;;24.60;99.90;;;;;;5205420;28;20109;-73
2023/10/31 12:24:20;;;;;;;37.95;28.58;;;24.80;99.90;;;;;;5205251;28;20025;-73
2023/10/31 12:26:51;;;;;;;32.90;27.67;;;24.90;99.90;;;;;;5205352;28;20038;-73
2023/10/31 12:29:22;;;;;;;35.03;28.10;;;25.00;99.90;;;;;;5205440;28;20351;-73
2023/10/31 12:31:54;;;;;;;35.38;26.80;;;24.80;99.90;;;;;;5204843;28;20044;-72
2023/10/31 12:34:25;;;;;;;35.70;26.33;;;25.00;99.90;;;;;;5204868;28;21513;-73
2023/10/31 12:36:59;;;;;;;30.45;26.02;;;24.90;99.90;;;;;;5203924;28;20036;-73
2023/10/31 12:39:30;;;;;;;34.47;27.08;;;24.70;99.90;;;;;;5203916;28;20136;-74
2023/10/31 12:42:02;;;;;;;33.25;26.35;;;25.00;99.90;;;;;;5204049;28;20053;-74
2023/10/31 12:44:35;;;;;;;28.55;25.13;;;25.10;99.90;;;;;;5204240;28;20057;-73
2023/10/31 12:47:08;;;;;;;32.63;26.75;;;25.10;99.90;;;;;;5202823;28;20042;-73
2023/10/31 12:49:38;;;;;;;34.53;26.10;;;25.20;99.90;;;;;;5202793;28;20041;-73
2023/10/31 12:52:09;;;;;;;30.00;26.05;;;25.30;99.90;;;;;;5203788;28;20034;-72
2023/10/31 12:54:40;;;;;;;32.95;25.80;;;25.30;99.90;;;;;;5205115;28;20499;-72
2023/10/31 12:57:11;;;;;;;31.42;28.08;;;25.50;99.90;;;;;;5205126;28;20029;-73
2023/10/31 12:59:42;;;;;;;35.00;26.23;;;25.30;99.90;;;;;;5204998;28;20112;-72
2023/10/31 13:02:17;;;;;;;30.05;26.50;;;25.40;99.90;;;;;;5205152;28;20030;-73